createdAt,value
2018-06-30T00:00:09.389Z,21.46
2018-06-30T00:02:38.083Z,21.41
2018-06-30T00:05:06.748Z,21.40
2018-06-30T00:07:35.192Z,21.38
2018-06-30T00:10:03.484Z,21.36
2018-06-30T00:12:31.583Z,21.30
2018-06-30T00:15:00.061Z,21.21
2018-06-30T00:17:28.517Z,21.11
2018-06-30T00:19:56.933Z,21.07
2018-06-30T00:22:25.373Z,21.07
2018-06-30T00:24:53.866Z,21.09
2018-06-30T00:27:28.375Z,21.09
2018-06-30T00:29:57.652Z,21.01
2018-06-30T00:32:26.345Z,20.95
2018-06-30T00:34:55.001Z,20.88
2018-06-30T00:37:23.517Z,20.82
2018-06-30T00:39:52.193Z,20.79
2018-06-30T00:42:20.481Z,20.81
2018-06-30T00:44:48.925Z,20.81
2018-06-30T00:47:17.063Z,20.76
2018-06-30T00:49:45.177Z,20.77
2018-06-30T00:52:14.059Z,20.73
2018-06-30T00:54:42.693Z,20.71
2018-06-30T00:57:11.137Z,20.66
2018-06-30T00:59:39.245Z,20.59
2018-06-30T01:02:07.530Z,20.55
2018-06-30T01:04:35.973Z,20.57
2018-06-30T01:07:04.302Z,20.53
2018-06-30T01:09:32.418Z,20.46
2018-06-30T01:12:00.905Z,20.40
2018-06-30T01:14:29.338Z,20.38
2018-06-30T01:16:58.061Z,20.36
2018-06-30T01:19:26.605Z,20.41
2018-06-30T01:21:55.338Z,20.46
2018-06-30T01:24:23.456Z,20.45
2018-06-30T01:26:52.301Z,20.42
2018-06-30T01:29:20.430Z,20.37
2018-06-30T01:31:48.881Z,20.36
2018-06-30T01:34:17.582Z,20.31
2018-06-30T01:36:46.217Z,20.22
2018-06-30T01:39:14.674Z,20.11
2018-06-30T01:41:43.120Z,20.07
2018-06-30T01:44:11.570Z,20.03
2018-06-30T01:46:40.026Z,20.02
2018-06-30T01:49:08.499Z,20.00
2018-06-30T01:51:36.853Z,20.01
2018-06-30T01:54:05.538Z,19.96
2018-06-30T01:56:34.224Z,19.92
2018-06-30T01:59:02.888Z,19.88
2018-06-30T02:01:30.997Z,19.74
2018-06-30T02:03:59.121Z,19.62
2018-06-30T02:06:27.818Z,19.57
2018-06-30T02:08:55.948Z,19.53
2018-06-30T02:11:24.390Z,19.43
2018-06-30T02:13:52.836Z,19.28
2018-06-30T02:16:21.301Z,19.16
2018-06-30T02:18:49.789Z,19.05
2018-06-30T02:21:18.393Z,18.99
2018-06-30T02:23:46.526Z,18.99
2018-06-30T02:26:14.614Z,18.97
2018-06-30T02:28:43.069Z,18.95
2018-06-30T02:31:11.385Z,18.99
2018-06-30T02:33:40.019Z,19.02
2018-06-30T02:36:08.462Z,19.06
2018-06-30T02:38:37.137Z,19.15
2018-06-30T02:41:05.249Z,19.16
2018-06-30T02:43:33.706Z,19.09
2018-06-30T02:46:02.140Z,19.01
2018-06-30T02:48:30.716Z,18.93
2018-06-30T02:50:59.083Z,18.83
2018-06-30T02:53:27.824Z,18.72
2018-06-30T02:55:56.178Z,18.57
2018-06-30T02:58:24.829Z,18.42
2018-06-30T03:00:53.162Z,18.27
2018-06-30T03:03:21.284Z,18.14
2018-06-30T03:05:49.694Z,18.09
2018-06-30T03:08:17.819Z,18.02
2018-06-30T03:10:46.354Z,17.98
2018-06-30T03:13:14.928Z,17.98
2018-06-30T03:15:43.579Z,18.03
2018-06-30T03:18:12.049Z,18.10
2018-06-30T03:20:40.369Z,18.09
2018-06-30T03:23:09.017Z,18.04
2018-06-30T03:25:37.141Z,18.01
2018-06-30T03:28:05.281Z,18.01
2018-06-30T03:30:33.753Z,18.04
2018-06-30T03:33:02.386Z,18.07
2018-06-30T03:35:30.849Z,18.04
2018-06-30T03:37:59.270Z,18.07
2018-06-30T03:40:27.630Z,18.05
2018-06-30T03:42:55.968Z,18.04
2018-06-30T03:45:24.134Z,18.00
2018-06-30T03:47:52.580Z,17.91
2018-06-30T03:50:21.030Z,17.88
2018-06-30T03:52:49.469Z,17.85
2018-06-30T03:55:17.888Z,17.82
2018-06-30T03:57:46.325Z,17.80
2018-06-30T04:00:14.765Z,17.86
2018-06-30T04:02:43.211Z,17.90
2018-06-30T04:05:11.326Z,17.94
2018-06-30T04:07:40.006Z,17.96
2018-06-30T04:10:08.458Z,17.89
2018-06-30T04:12:36.890Z,17.84
2018-06-30T04:15:05.627Z,17.83
2018-06-30T04:17:33.726Z,17.77
2018-06-30T04:20:02.187Z,17.78
2018-06-30T04:22:30.625Z,17.76
2018-06-30T04:24:59.080Z,17.77
2018-06-30T04:27:27.536Z,17.74
2018-06-30T04:29:55.652Z,17.71
2018-06-30T04:32:23.754Z,17.61
2018-06-30T04:34:52.211Z,17.49
2018-06-30T04:37:20.314Z,17.46
2018-06-30T04:39:48.781Z,17.51
2018-06-30T04:42:17.216Z,17.58
2018-06-30T04:44:45.334Z,17.62
2018-06-30T04:47:13.445Z,17.72
2018-06-30T04:49:41.894Z,17.80
2018-06-30T04:52:10.374Z,17.84
2018-06-30T04:54:38.844Z,17.85
2018-06-30T04:57:07.190Z,17.86
2018-06-30T04:59:35.452Z,17.84
2018-06-30T05:02:03.574Z,17.84
2018-06-30T05:04:31.857Z,17.76
2018-06-30T05:07:00.569Z,17.64
2018-06-30T05:09:28.712Z,17.58
2018-06-30T05:11:58.984Z,17.58
2018-06-30T05:14:27.677Z,17.63
2018-06-30T05:16:56.017Z,17.63
2018-06-30T05:19:24.477Z,17.64
2018-06-30T05:21:52.942Z,17.72
2018-06-30T05:24:21.049Z,17.74
2018-06-30T05:26:49.173Z,17.77
2018-06-30T05:29:17.617Z,17.78
2018-06-30T05:31:45.750Z,17.71
2018-06-30T05:34:13.859Z,17.71
2018-06-30T05:36:41.968Z,17.75
2018-06-30T05:39:19.642Z,17.91
2018-06-30T05:41:48.101Z,18.09
2018-06-30T05:44:16.977Z,18.26
2018-06-30T05:46:45.449Z,18.34
2018-06-30T05:49:14.086Z,18.37
2018-06-30T05:51:42.209Z,18.41
2018-06-30T05:54:10.657Z,18.44
2018-06-30T05:56:38.797Z,18.47
2018-06-30T05:59:07.241Z,18.53
2018-06-30T06:01:35.732Z,18.61
2018-06-30T06:04:04.177Z,18.57
2018-06-30T06:06:32.640Z,18.49
2018-06-30T06:09:00.749Z,18.45
2018-06-30T06:11:29.205Z,18.49
2018-06-30T06:13:57.650Z,18.52
2018-06-30T06:16:26.105Z,18.59
2018-06-30T06:18:54.538Z,18.69
2018-06-30T06:21:22.660Z,18.78
2018-06-30T06:23:50.773Z,18.92
2018-06-30T06:26:19.418Z,19.04
2018-06-30T06:28:47.846Z,19.11
2018-06-30T06:31:16.318Z,19.11
2018-06-30T06:33:44.777Z,19.11
2018-06-30T06:36:13.466Z,19.23
2018-06-30T06:38:41.900Z,19.40
2018-06-30T06:41:10.356Z,19.57
2018-06-30T06:43:38.797Z,19.72
2018-06-30T06:46:07.498Z,19.88
2018-06-30T06:48:35.931Z,20.03
2018-06-30T06:51:04.076Z,20.05
2018-06-30T06:53:32.373Z,20.04
2018-06-30T06:56:00.841Z,20.06
2018-06-30T06:58:29.521Z,20.09
2018-06-30T07:00:57.934Z,20.21
2018-06-30T07:03:26.669Z,20.34
2018-06-30T07:05:55.210Z,20.53
2018-06-30T07:08:23.322Z,20.67
2018-06-30T07:10:51.452Z,20.79
2018-06-30T07:13:20.125Z,20.85
2018-06-30T07:15:48.256Z,20.85
2018-06-30T07:18:16.933Z,20.79
2018-06-30T07:20:45.529Z,20.74
2018-06-30T07:23:14.093Z,20.86
2018-06-30T07:25:42.226Z,20.98
2018-06-30T07:28:10.366Z,21.19
2018-06-30T07:30:38.775Z,21.36
2018-06-30T07:33:07.829Z,21.48
2018-06-30T07:35:36.173Z,21.54
2018-06-30T07:38:04.433Z,21.63
2018-06-30T07:40:32.957Z,21.77
2018-06-30T07:43:01.649Z,21.77
2018-06-30T07:45:29.765Z,21.76
2018-06-30T07:47:58.238Z,21.85
2018-06-30T07:50:26.408Z,22.00
2018-06-30T07:52:54.920Z,22.09
2018-06-30T07:55:23.299Z,22.08
2018-06-30T07:57:51.433Z,22.08
2018-06-30T08:00:19.972Z,22.14
2018-06-30T08:02:48.412Z,22.21
2018-06-30T08:05:16.840Z,22.25
2018-06-30T08:07:45.296Z,22.40
2018-06-30T08:10:13.391Z,22.50
2018-06-30T08:12:41.870Z,22.48
2018-06-30T08:15:10.297Z,22.46
2018-06-30T08:17:38.920Z,22.43
2018-06-30T08:20:07.361Z,22.54
2018-06-30T08:22:35.661Z,22.66
2018-06-30T08:25:03.794Z,22.77
2018-06-30T08:27:32.259Z,22.83
2018-06-30T08:30:00.364Z,22.87
2018-06-30T08:32:28.473Z,22.85
2018-06-30T08:34:56.981Z,23.06
2018-06-30T08:37:25.433Z,23.22
2018-06-30T08:39:54.115Z,23.36
2018-06-30T08:42:22.234Z,23.36
2018-06-30T08:44:50.685Z,23.38
2018-06-30T08:47:18.804Z,23.55
2018-06-30T08:49:47.371Z,23.74
2018-06-30T08:52:15.833Z,23.78
2018-06-30T08:54:43.934Z,23.81
2018-06-30T08:57:12.712Z,23.84
2018-06-30T08:59:41.473Z,23.84
2018-06-30T09:02:09.736Z,23.75
2018-06-30T09:04:38.172Z,23.79
2018-06-30T09:07:06.288Z,23.89
2018-06-30T09:09:34.950Z,24.13
2018-06-30T09:12:03.892Z,24.24
2018-06-30T09:14:32.360Z,24.26
2018-06-30T09:17:00.817Z,24.25
2018-06-30T09:19:28.932Z,24.17
2018-06-30T09:21:57.061Z,24.04
2018-06-30T09:24:25.157Z,24.00
2018-06-30T09:26:53.517Z,24.05
2018-06-30T09:29:21.624Z,24.16
2018-06-30T09:31:50.313Z,24.37
2018-06-30T09:34:18.433Z,24.36
2018-06-30T09:36:46.773Z,24.48
2018-06-30T09:39:15.102Z,24.63
2018-06-30T09:41:43.200Z,24.80
2018-06-30T09:44:11.349Z,24.84
2018-06-30T09:46:39.760Z,24.80
2018-06-30T09:49:08.232Z,24.94
2018-06-30T09:51:36.686Z,25.22
2018-06-30T09:54:04.829Z,25.30
2018-06-30T09:56:33.248Z,25.34
2018-06-30T09:59:01.703Z,25.20
2018-06-30T10:01:30.052Z,24.95
2018-06-30T10:04:01.951Z,24.83
2018-06-30T10:06:30.557Z,24.80
2018-06-30T10:08:58.904Z,24.85
2018-06-30T10:11:27.349Z,24.98
2018-06-30T10:13:55.809Z,25.27
2018-06-30T10:16:24.269Z,25.51
2018-06-30T10:18:52.400Z,25.48
2018-06-30T10:21:20.504Z,25.54
2018-06-30T10:23:48.959Z,25.61
2018-06-30T10:26:17.393Z,25.62
2018-06-30T10:28:45.509Z,25.64
2018-06-30T10:31:13.998Z,25.66
2018-06-30T10:33:42.293Z,25.71
2018-06-30T10:36:10.786Z,25.76
2018-06-30T10:38:39.247Z,25.75
2018-06-30T10:41:07.391Z,25.78
2018-06-30T10:43:36.086Z,25.66
2018-06-30T10:46:04.207Z,25.71
2018-06-30T10:48:32.888Z,25.94
2018-06-30T10:51:01.041Z,26.14
2018-06-30T10:53:29.932Z,26.43
2018-06-30T10:55:58.414Z,26.55
2018-06-30T10:58:27.311Z,26.37
2018-06-30T11:00:55.750Z,26.11
2018-06-30T11:03:24.253Z,25.98
2018-06-30T11:05:52.778Z,26.04
2018-06-30T11:08:21.640Z,26.15
2018-06-30T11:10:50.547Z,26.43
2018-06-30T11:13:19.201Z,26.67
2018-06-30T11:15:47.629Z,26.89
2018-06-30T11:18:16.058Z,26.92
2018-06-30T11:20:44.725Z,26.69
2018-06-30T11:23:13.288Z,26.63
2018-06-30T11:25:41.387Z,26.79
2018-06-30T11:28:09.789Z,26.79
2018-06-30T11:30:38.689Z,26.72
2018-06-30T11:33:07.153Z,26.58
2018-06-30T11:35:35.283Z,26.46
2018-06-30T11:38:03.749Z,26.40
2018-06-30T11:40:32.486Z,26.44
2018-06-30T11:43:01.010Z,26.54
2018-06-30T11:45:29.371Z,26.58
2018-06-30T11:47:57.477Z,26.90
2018-06-30T11:50:25.664Z,27.27
2018-06-30T11:52:54.712Z,27.33
2018-06-30T11:55:23.133Z,27.45
2018-06-30T11:57:51.237Z,27.50
2018-06-30T12:00:19.705Z,27.39
2018-06-30T12:02:48.873Z,27.35
2018-06-30T12:05:17.392Z,27.43
2018-06-30T12:07:46.168Z,27.78
2018-06-30T12:10:14.820Z,27.97
2018-06-30T12:12:43.745Z,27.96
2018-06-30T12:15:12.193Z,27.68
2018-06-30T12:17:40.307Z,27.60
2018-06-30T12:20:09.421Z,27.59
2018-06-30T12:22:37.765Z,27.69
2018-06-30T12:25:06.182Z,27.76
2018-06-30T12:27:34.885Z,27.67
2018-06-30T12:30:03.597Z,27.69
2018-06-30T12:32:32.033Z,27.87
2018-06-30T12:35:00.613Z,27.74
2018-06-30T12:37:29.050Z,27.59
2018-06-30T12:39:57.529Z,27.57
2018-06-30T12:42:25.885Z,27.49
2018-06-30T12:44:54.618Z,27.42
2018-06-30T12:47:23.244Z,27.31
2018-06-30T12:49:52.269Z,27.44
2018-06-30T12:52:20.429Z,27.37
2018-06-30T12:54:49.155Z,27.52
2018-06-30T12:57:17.784Z,27.88
2018-06-30T12:59:46.227Z,28.00
2018-06-30T13:02:14.895Z,28.02
2018-06-30T13:04:43.241Z,27.93
2018-06-30T13:07:12.264Z,27.86
2018-06-30T13:09:40.714Z,27.90
2018-06-30T13:12:09.566Z,27.95
2018-06-30T13:14:38.255Z,28.00
2018-06-30T13:17:06.374Z,27.97
2018-06-30T13:19:34.641Z,27.90
2018-06-30T13:22:02.760Z,27.85
2018-06-30T13:24:31.481Z,27.91
2018-06-30T13:27:00.174Z,27.88
2018-06-30T13:29:28.308Z,27.83
2018-06-30T13:31:56.759Z,27.88
2018-06-30T13:34:25.293Z,27.85
2018-06-30T13:36:53.879Z,27.96
2018-06-30T13:39:23.245Z,28.19
2018-06-30T13:41:51.353Z,28.34
2018-06-30T13:44:19.826Z,28.37
2018-06-30T13:46:48.260Z,28.46
2018-06-30T13:49:16.668Z,28.77
2018-06-30T13:51:44.781Z,28.85
2018-06-30T13:57:03.767Z,28.64
2018-06-30T13:59:32.448Z,28.61
2018-06-30T14:02:00.536Z,28.64
2018-06-30T14:04:29.083Z,28.69
2018-06-30T14:06:57.470Z,28.89
2018-06-30T14:09:26.023Z,28.88
2018-06-30T14:11:54.355Z,28.46
2018-06-30T14:14:22.919Z,28.32
2018-06-30T14:16:51.556Z,28.56
2018-06-30T14:19:20.261Z,28.89
2018-06-30T14:21:48.880Z,28.88
2018-06-30T14:24:17.303Z,28.49
2018-06-30T14:26:45.668Z,27.99
2018-06-30T14:29:13.928Z,27.86
2018-06-30T14:31:43.792Z,27.90
2018-06-30T14:34:12.223Z,28.02
2018-06-30T14:36:40.570Z,28.05
2018-06-30T14:39:11.393Z,28.11
2018-06-30T14:41:39.805Z,27.98
2018-06-30T14:44:07.982Z,28.03
2018-06-30T14:46:36.723Z,28.04
2018-06-30T14:49:05.696Z,28.15
2018-06-30T14:51:34.517Z,28.35
2018-06-30T14:54:03.408Z,28.39
2018-06-30T14:56:32.023Z,28.40
2018-06-30T14:59:00.352Z,28.41
2018-06-30T15:01:28.732Z,28.25
2018-06-30T15:03:56.823Z,28.07
2018-06-30T15:06:25.261Z,28.10
2018-06-30T15:08:54.188Z,28.26
2018-06-30T15:11:22.302Z,28.33
2018-06-30T15:13:51.133Z,28.20
2018-06-30T15:16:19.449Z,28.04
2018-06-30T15:18:48.647Z,28.01
2018-06-30T15:21:17.148Z,28.11
2018-06-30T15:23:45.264Z,28.06
2018-06-30T15:26:13.952Z,27.89
2018-06-30T15:28:42.233Z,27.74
2018-06-30T15:31:10.340Z,27.69
2018-06-30T15:33:38.449Z,27.72
2018-06-30T15:36:06.680Z,27.63
2018-06-30T15:38:35.168Z,27.60
2018-06-30T15:41:03.633Z,27.69
2018-06-30T15:43:32.304Z,27.77
2018-06-30T15:46:01.252Z,27.76
2018-06-30T15:48:29.692Z,27.82
2018-06-30T15:50:58.399Z,27.86
2018-06-30T15:53:26.892Z,27.92
2018-06-30T15:55:55.275Z,27.94
2018-06-30T15:58:23.544Z,27.89
2018-06-30T16:00:52.552Z,27.82
2018-06-30T16:03:20.996Z,27.86
2018-06-30T16:05:49.383Z,27.63
2018-06-30T16:08:17.887Z,27.44
2018-06-30T16:10:46.607Z,27.34
2018-06-30T16:13:15.036Z,27.43
2018-06-30T16:15:44.869Z,27.52
2018-06-30T16:18:13.207Z,27.39
2018-06-30T16:20:41.736Z,27.24
2018-06-30T16:23:10.675Z,27.20
2018-06-30T16:25:39.123Z,27.18
2018-06-30T16:28:07.708Z,27.21
2018-06-30T16:30:36.168Z,27.13
2018-06-30T16:33:04.660Z,26.92
2018-06-30T16:35:32.931Z,26.73
2018-06-30T16:38:01.894Z,26.71
2018-06-30T16:40:30.617Z,26.76
2018-06-30T16:42:58.736Z,26.76
2018-06-30T16:45:27.156Z,26.71
2018-06-30T16:47:55.948Z,26.62
2018-06-30T16:50:24.284Z,26.63
2018-06-30T16:52:53.195Z,26.62
2018-06-30T16:55:21.385Z,26.63
2018-06-30T16:57:49.755Z,26.59
2018-06-30T17:00:18.431Z,26.49
2018-06-30T17:02:46.646Z,26.44
2018-06-30T17:05:14.981Z,26.42
2018-06-30T17:07:44.976Z,26.38
2018-06-30T17:10:13.721Z,26.37
2018-06-30T17:12:42.872Z,26.38
2018-06-30T17:15:11.747Z,26.38
2018-06-30T17:17:40.019Z,26.40
2018-06-30T17:20:08.533Z,26.37
2018-06-30T17:22:37.121Z,26.34
2018-06-30T17:25:05.424Z,26.30
2018-06-30T17:27:33.778Z,26.16
2018-06-30T17:30:02.922Z,26.10
2018-06-30T17:32:32.091Z,26.06
2018-06-30T17:35:00.695Z,26.03
2018-06-30T17:37:28.848Z,25.96
2018-06-30T17:39:56.939Z,25.91
2018-06-30T17:42:25.758Z,25.86
2018-06-30T17:44:54.080Z,25.78
2018-06-30T17:47:22.482Z,25.69
2018-06-30T17:49:50.857Z,25.59
2018-06-30T17:52:19.619Z,25.50
2018-06-30T17:54:48.208Z,25.49
2018-06-30T17:57:16.500Z,25.46
2018-06-30T17:59:44.940Z,25.44
2018-06-30T18:02:13.092Z,25.41
2018-06-30T18:04:46.940Z,25.33
2018-06-30T18:07:15.132Z,25.26
2018-06-30T18:09:47.456Z,25.22
2018-06-30T18:12:16.211Z,25.19
2018-06-30T18:14:45.348Z,25.13
2018-06-30T18:17:13.481Z,25.08
2018-06-30T18:19:42.058Z,25.00
2018-06-30T18:22:10.403Z,24.95
2018-06-30T18:24:38.967Z,24.90
2018-06-30T18:27:07.480Z,24.83
2018-06-30T18:29:36.019Z,24.78
2018-06-30T18:32:04.375Z,24.76
2018-06-30T18:34:33.074Z,24.72
2018-06-30T18:37:01.944Z,24.66
2018-06-30T18:39:30.509Z,24.56
2018-06-30T18:41:59.016Z,24.50
2018-06-30T18:44:27.121Z,24.42
2018-06-30T18:46:55.601Z,24.32
2018-06-30T18:49:23.940Z,24.29
2018-06-30T18:51:52.672Z,24.30
2018-06-30T18:54:21.106Z,24.27
2018-06-30T18:56:49.510Z,24.15
2018-06-30T18:59:18.245Z,24.07
2018-06-30T19:01:47.015Z,23.99
2018-06-30T19:04:15.976Z,23.91
2018-06-30T19:06:45.546Z,23.85
2018-06-30T19:09:14.423Z,23.79
2018-06-30T19:11:42.764Z,23.75
2018-06-30T19:14:11.084Z,23.69
2018-06-30T19:16:39.396Z,23.62
2018-06-30T19:19:07.771Z,23.57
2018-06-30T19:21:36.387Z,23.55
2018-06-30T19:24:04.944Z,23.56
2018-06-30T19:26:33.585Z,23.47
2018-06-30T19:29:02.548Z,23.37
2018-06-30T19:31:31.175Z,23.28
2018-06-30T19:33:59.862Z,23.18
2018-06-30T19:36:28.299Z,23.14
2018-06-30T19:38:57.218Z,23.10
2018-06-30T19:41:25.656Z,23.04
2018-06-30T19:43:54.898Z,22.99
2018-06-30T19:46:23.313Z,22.89
2018-06-30T19:48:52.040Z,22.81
2018-06-30T19:51:20.172Z,22.74
2018-06-30T19:53:48.609Z,22.65
2018-06-30T19:56:17.720Z,22.58
2018-06-30T19:58:46.222Z,22.54
2018-06-30T20:01:14.331Z,22.48
2018-06-30T20:03:42.770Z,22.42
2018-06-30T20:06:11.336Z,22.38
2018-06-30T20:08:40.014Z,22.33
2018-06-30T20:11:08.116Z,22.31
2018-06-30T20:13:36.836Z,22.32
2018-06-30T20:16:04.915Z,22.34
2018-06-30T20:18:33.027Z,22.37
2018-06-30T20:21:01.808Z,22.40
2018-06-30T20:23:29.999Z,22.41
2018-06-30T20:25:58.131Z,22.45
2018-06-30T20:28:26.755Z,22.48
2018-06-30T20:30:55.459Z,22.47
2018-06-30T20:33:24.128Z,22.40
2018-06-30T20:35:52.767Z,22.31
2018-06-30T20:38:21.039Z,22.27
2018-06-30T20:40:49.296Z,22.19
2018-06-30T20:43:17.416Z,22.13
2018-06-30T20:45:46.403Z,22.04
2018-06-30T20:48:16.055Z,21.96
2018-06-30T20:50:45.412Z,21.91
2018-06-30T20:53:14.264Z,21.86
2018-06-30T20:55:42.607Z,21.82
2018-06-30T20:58:11.375Z,21.78
2018-06-30T21:00:39.493Z,21.70
2018-06-30T21:03:08.123Z,21.62
2018-06-30T21:05:36.465Z,21.56
2018-06-30T21:08:04.860Z,21.51
2018-06-30T21:10:33.493Z,21.50
2018-06-30T21:13:02.198Z,21.51
2018-06-30T21:15:31.180Z,21.47
2018-06-30T21:17:59.372Z,21.42
2018-06-30T21:20:27.710Z,21.36
2018-06-30T21:22:56.525Z,21.31
2018-06-30T21:25:24.967Z,21.32
2018-06-30T21:27:53.607Z,21.29
2018-06-30T21:30:22.070Z,21.24
2018-06-30T21:32:50.300Z,21.19
2018-06-30T21:35:23.518Z,21.17
2018-06-30T21:37:51.943Z,21.18
2018-06-30T21:40:20.404Z,21.14
2018-06-30T21:42:48.783Z,21.03
2018-06-30T21:45:17.876Z,20.95
2018-06-30T21:47:46.593Z,20.94
2018-06-30T21:50:15.346Z,20.91
2018-06-30T21:52:43.835Z,20.87
2018-06-30T21:55:12.155Z,20.85
2018-06-30T21:57:40.841Z,20.80
2018-06-30T22:00:12.012Z,20.69
2018-06-30T22:02:40.248Z,20.61
2018-06-30T22:05:08.813Z,20.61
2018-06-30T22:07:37.272Z,20.64
2018-06-30T22:10:06.876Z,20.61
2018-06-30T22:12:35.679Z,20.60
2018-06-30T22:15:04.196Z,20.61
2018-06-30T22:17:32.295Z,20.57
2018-06-30T22:20:00.703Z,20.51
2018-06-30T22:22:29.441Z,20.47
2018-06-30T22:24:58.176Z,20.45
2018-06-30T22:27:26.617Z,20.38
2018-06-30T22:29:55.078Z,20.12
2018-06-30T22:32:23.652Z,19.89
2018-06-30T22:34:52.323Z,19.63
2018-06-30T22:37:20.440Z,19.42
2018-06-30T22:40:00.020Z,19.23
2018-06-30T22:42:28.657Z,19.05
2018-06-30T22:44:57.000Z,18.94
2018-06-30T22:47:25.688Z,18.83
2018-06-30T22:49:53.805Z,18.77
2018-06-30T22:52:22.656Z,18.68
2018-06-30T22:54:50.766Z,18.61
2018-06-30T22:57:19.146Z,18.53
2018-06-30T22:59:47.892Z,18.49
2018-06-30T23:02:16.250Z,18.46
2018-06-30T23:04:45.917Z,18.40
2018-06-30T23:07:14.260Z,18.34
2018-06-30T23:09:42.573Z,18.30
2018-06-30T23:12:11.155Z,18.27
2018-06-30T23:14:39.981Z,18.23
2018-06-30T23:17:08.997Z,18.19
2018-06-30T23:19:37.760Z,18.13
2018-06-30T23:22:06.085Z,18.09
2018-06-30T23:24:34.717Z,18.05
2018-06-30T23:27:03.348Z,18.01
2018-06-30T23:29:31.655Z,17.97
2018-06-30T23:31:59.756Z,17.91
2018-06-30T23:34:28.245Z,17.86
2018-06-30T23:36:56.637Z,17.83
2018-06-30T23:39:24.769Z,17.76
2018-06-30T23:41:52.870Z,17.73
2018-06-30T23:44:21.591Z,17.66
2018-06-30T23:46:50.012Z,17.59
2018-06-30T23:49:18.709Z,17.54
2018-06-30T23:51:47.686Z,17.51
2018-06-30T23:54:16.107Z,17.51
2018-06-30T23:56:45.849Z,17.48
2018-06-30T23:59:14.753Z,17.45
